Time;durP1;ratioP1;P1;durP2;ratioP2;P2;SDS_P1;SDS_P2;PMS_P1;PMS_P2;Temp;Humidity;BMP_temperature;BMP_pressure;BME280_temperature;BME280_humidity;BME280_pressure;Samples;Min_cycle;Max_cycle;Signal;HPM_P1;HPM_P2
2022/05/13 00:01:56;;;;;;;3.83;3.00;;;;;;;16.65;66.77;94800.81;5071534;28;20175;-64
2022/05/13 00:04:22;;;;;;;4.63;3.45;;;;;;;16.64;66.43;94814.63;5069880;28;20257;-65
2022/05/13 00:06:47;;;;;;;5.63;3.45;;;;;;;16.76;66.67;94810.78;5071411;28;20180;-63
2022/05/13 00:09:12;;;;;;;4.85;3.13;;;;;;;16.76;67.64;94789.41;5070251;28;20769;-62
2022/05/13 00:11:39;;;;;;;3.40;3.10;;;;;;;16.69;67.13;94799.53;5073884;28;20173;-63
2022/05/13 00:14:06;;;;;;;4.80;3.60;;;;;;;16.87;68.06;94788.28;5084956;28;20215;-61
2022/05/13 00:16:35;;;;;;;3.50;3.20;;;;;;;16.66;68.98;94783.66;5095303;28;20676;-62
2022/05/13 00:19:01;;;;;;;5.53;3.20;;;;;;;16.43;69.64;94772.44;5094077;28;20196;-64
2022/05/13 00:21:26;;;;;;;5.95;3.78;;;;;;;16.38;71.39;94756.72;5094175;28;20280;-60
2022/05/13 00:23:52;;;;;;;3.78;3.47;;;;;;;16.71;70.72;94777.06;5095444;28;20283;-63
2022/05/13 00:26:17;;;;;;;5.50;3.60;;;;;;;16.87;69.70;94788.28;5095005;28;20602;-63
2022/05/13 00:28:43;;;;;;;5.30;3.60;;;;;;;16.89;68.88;94794.06;5100165;22;20228;-59
2022/05/13 00:31:08;;;;;;;6.85;4.40;;;;;;;16.79;69.89;94773.69;5095022;28;20171;-60
2022/05/13 00:33:34;;;;;;;5.75;4.40;;;;;;;16.83;70.37;94776.72;5095268;28;20258;-64
2022/05/13 00:35:59;;;;;;;5.05;4.43;;;;;;;16.87;70.60;94785.72;5094990;28;20173;-62
2022/05/13 00:38:25;;;;;;;4.65;3.92;;;;;;;16.82;70.85;94783.63;5095272;28;20196;-63
2022/05/13 00:40:51;;;;;;;7.32;4.53;;;;;;;17.04;69.27;94803.47;5094855;28;20729;-60
2022/05/13 00:43:40;;;;;;;4.55;3.58;;;;;;;17.02;68.63;94813.13;5095004;28;20275;-62
2022/05/13 00:46:05;;;;;;;4.85;4.38;;;;;;;16.73;69.35;94800.00;5093519;28;20564;-63
2022/05/13 00:48:31;;;;;;;7.30;4.10;;;;;;;16.55;71.43;94771.16;5093484;28;20310;-59
2022/05/13 00:50:57;;;;;;;7.70;4.50;;;;;;;16.36;70.54;94779.97;5094691;28;20557;-63
2022/05/13 00:53:24;;;;;;;7.10;4.28;;;;;;;16.41;70.13;94790.56;5094745;28;20227;-62
2022/05/13 00:55:52;;;;;;;4.50;4.00;;;;;;;16.41;69.29;94805.97;5094494;28;20646;-62
2022/05/13 00:58:19;;;;;;;6.45;4.20;;;;;;;16.46;70.81;94778.03;5094857;28;20196;-64
2022/05/13 01:00:45;;;;;;;6.57;4.20;;;;;;;16.57;69.43;94803.41;5094407;28;20229;-64
2022/05/13 01:03:11;;;;;;;5.57;3.72;;;;;;;16.36;70.72;94786.88;5094466;28;20208;-62
2022/05/13 01:05:39;;;;;;;5.72;3.90;;;;;;;16.40;70.81;94788.16;5094245;28;20178;-63
2022/05/13 01:08:07;;;;;;;4.50;3.67;;;;;;;16.59;69.27;94814.31;5093888;28;20215;-60
2022/05/13 01:10:35;;;;;;;5.13;4.30;;;;;;;16.41;69.77;94802.59;5094538;28;20176;-59
2022/05/13 01:13:07;;;;;;;4.68;4.03;;;;;;;16.47;69.08;94813.00;5094378;28;20211;-62
2022/05/13 01:15:36;;;;;;;6.50;4.05;;;;;;;16.55;68.60;94823.31;5093229;28;20176;-65
2022/05/13 01:18:08;;;;;;;4.78;4.28;;;;;;;16.42;69.72;94807.53;5094334;28;20698;-62
2022/05/13 01:20:48;;;;;;;4.90;3.63;;;;;;;16.45;70.11;94796.97;5094377;28;20576;-62
2022/05/13 01:23:20;;;;;;;10.27;4.40;;;;;;;16.52;69.63;94804.88;5092552;28;20203;-59
2022/05/13 01:25:56;;;;;;;6.93;4.00;;;;;;;16.35;67.76;94832.25;5092737;28;20172;-61
2022/05/13 01:28:29;;;;;;;7.10;3.83;;;;;;;16.15;68.93;94810.44;5094144;28;20212;-64
2022/05/13 01:30:58;;;;;;;5.30;3.53;;;;;;;16.10;69.15;94796.50;5093876;28;20172;-62
2022/05/13 01:33:25;;;;;;;7.82;3.95;;;;;;;16.12;69.05;94808.19;5093712;28;20211;-61
2022/05/13 01:35:53;;;;;;;8.95;3.78;;;;;;;16.27;67.16;94837.38;5094164;28;20658;-61
2022/05/13 01:38:24;;;;;;;3.53;3.22;;;;;;;16.21;66.59;94840.59;5093783;28;20208;-61
2022/05/13 01:40:50;;;;;;;3.20;2.90;;;;;;;16.18;64.97;94861.41;5093808;28;20252;-65
2022/05/13 01:43:16;;;;;;;3.40;3.10;;;;;;;16.00;65.65;94837.66;5093962;28;20287;-62
2022/05/13 01:45:41;;;;;;;3.15;2.83;;;;;;;16.00;66.06;94835.09;5093625;28;20164;-64
2022/05/13 01:48:08;;;;;;;6.38;3.60;;;;;;;15.98;66.98;94821.63;5092169;28;20224;-62
2022/05/13 01:50:35;;;;;;;4.10;3.17;;;;;;;15.99;65.90;94828.38;5092284;28;20595;-64
2022/05/13 01:53:01;;;;;;;4.03;3.45;;;;;;;16.07;65.06;94837.84;5093806;28;20224;-60
2022/05/13 01:55:26;;;;;;;6.25;3.28;;;;;;;15.95;64.77;94843.28;5092156;28;20665;-63
2022/05/13 01:57:52;;;;;;;5.13;3.25;;;;;;;15.96;64.96;94837.19;5091950;28;20200;-61
2022/05/13 02:00:18;;;;;;;3.50;3.20;;;;;;;15.80;64.58;94842.28;5093313;28;20172;-62
2022/05/13 02:05:34;;;;;;;3.90;3.40;;;;;;;15.59;65.71;94818.03;5093424;28;20180;-64
2022/05/13 02:08:00;;;;;;;3.33;3.03;;;;;;;15.38;66.67;94790.25;5091720;28;20693;-64
2022/05/13 02:10:25;;;;;;;6.10;3.30;;;;;;;15.37;67.63;94793.75;5093181;28;20186;-61
2022/05/13 02:12:51;;;;;;;4.32;3.17;;;;;;;15.43;66.93;94798.28;5093352;28;20207;-61
2022/05/13 02:15:17;;;;;;;4.00;3.08;;;;;;;15.51;67.31;94800.09;5093166;28;20271;-60
2022/05/13 02:17:43;;;;;;;5.18;3.60;;;;;;;15.35;69.19;94764.16;5093112;28;20295;-64
2022/05/13 02:20:10;;;;;;;3.50;3.20;;;;;;;15.32;68.56;94790.88;5092912;28;20182;-61
2022/05/13 02:22:36;;;;;;;6.03;3.55;;;;;;;15.56;68.49;94783.28;5091643;28;20678;-62
2022/05/13 02:25:02;;;;;;;6.75;3.38;;;;;;;15.33;70.64;94763.50;5093178;28;20188;-61
2022/05/13 02:27:28;;;;;;;6.75;3.20;;;;;;;15.55;70.63;94774.00;5092656;28;20180;-63
2022/05/13 02:29:53;;;;;;;5.00;3.88;;;;;;;15.68;71.22;94764.06;5093032;28;20187;-59
2022/05/13 02:32:19;;;;;;;4.72;3.42;;;;;;;15.82;70.74;94783.16;5092670;28;20172;-60
2022/05/13 02:34:44;;;;;;;4.07;3.67;;;;;;;15.92;69.90;94800.00;5092161;28;20176;-61
2022/05/13 02:37:10;;;;;;;6.18;3.53;;;;;;;15.94;69.10;94808.34;5074376;28;20664;-62
2022/05/13 02:39:35;;;;;;;4.30;3.90;;;;;;;16.02;67.44;94827.28;5092785;28;20184;-61
2022/05/13 02:42:01;;;;;;;3.63;3.20;;;;;;;15.82;69.41;94803.66;5092588;28;20637;-62
2022/05/13 02:44:26;;;;;;;4.72;3.53;;;;;;;15.80;68.52;94813.28;5092679;28;20215;-61
2022/05/13 02:46:52;;;;;;;4.03;3.50;;;;;;;15.51;68.43;94818.84;5091103;28;20206;-63
2022/05/13 02:49:18;;;;;;;6.15;3.42;;;;;;;15.42;69.02;94806.94;5092887;28;20208;-60
2022/05/13 02:51:48;;;;;;;6.32;3.50;;;;;;;15.23;70.07;94793.56;5092398;28;20183;-60
2022/05/13 02:54:13;;;;;;;4.97;3.72;;;;;;;15.17;70.36;94784.72;5092814;28;20674;-61
2022/05/13 02:56:38;;;;;;;4.50;4.10;;;;;;;14.75;72.74;94750.59;5092265;28;20249;-61
2022/05/13 02:59:05;;;;;;;5.35;3.80;;;;;;;14.78;74.63;94745.19;5093011;28;20302;-63
2022/05/13 03:01:32;;;;;;;4.43;3.70;;;;;;;14.72;74.01;94761.97;5092278;28;20184;-63
2022/05/13 03:03:58;;;;;;;4.90;3.55;;;;;;;14.55;74.83;94757.69;5092545;28;20192;-60
2022/05/13 03:06:24;;;;;;;5.82;4.25;;;;;;;14.39;75.95;94744.81;5092148;28;20180;-60
2022/05/13 03:08:50;;;;;;;5.87;3.93;;;;;;;14.28;77.26;94748.41;5090895;28;20220;-62
2022/05/13 03:11:16;;;;;;;6.80;4.53;;;;;;;14.32;77.53;94754.06;5092388;28;20222;-59
2022/05/13 03:13:42;;;;;;;6.40;4.60;;;;;;;14.19;78.71;94745.94;5092513;28;20652;-61
2022/05/13 03:16:10;;;;;;;5.87;4.20;;;;;;;14.06;79.91;94760.84;5092037;28;20255;-60
2022/05/13 03:18:39;;;;;;;4.47;4.07;;;;;;;13.89;81.71;94754.81;5092540;28;20209;-60
2022/05/13 03:21:05;;;;;;;4.97;4.50;;;;;;;13.90;81.80;94764.06;5091453;28;20176;-60
2022/05/13 03:23:30;;;;;;;5.47;4.85;;;;;;;13.78;82.92;94767.00;5090908;28;20228;-59
2022/05/13 03:25:56;;;;;;;4.88;4.30;;;;;;;13.72;84.05;94767.56;5092084;28;20211;-63
2022/05/13 03:28:22;;;;;;;6.53;4.53;;;;;;;13.73;84.69;94766.66;5092045;28;20254;-63
2022/05/13 03:30:49;;;;;;;8.63;5.28;;;;;;;13.90;84.05;94784.53;5091986;28;20208;-62
2022/05/13 03:33:16;;;;;;;6.18;4.32;;;;;;;13.86;84.01;94782.41;5092098;28;20723;-60
2022/05/13 03:35:41;;;;;;;6.27;4.60;;;;;;;14.02;84.82;94788.47;5091877;28;20332;-62
2022/05/13 03:38:07;;;;;;;6.55;5.03;;;;;;;14.05;83.72;94795.84;5090639;28;20290;-63
2022/05/13 03:40:32;;;;;;;7.93;5.05;;;;;;;14.15;83.10;94799.13;5092563;28;20215;-63
2022/05/13 03:42:57;;;;;;;6.55;4.90;;;;;;;14.34;82.47;94807.59;5090547;28;20212;-61
2022/05/13 03:45:23;;;;;;;7.78;4.32;;;;;;;14.60;80.58;94824.59;5094404;28;20556;-61
2022/05/13 03:47:56;;;;;;;6.55;4.80;;;;;;;15.00;100.00;94812.03;5096055;28;20291;-61
2022/05/13 03:50:21;;;;;;;5.32;4.82;;;;;;;15.30;100.00;94844.00;5095669;28;20182;-61
2022/05/13 03:52:47;;;;;;;5.25;4.38;;;;;;;15.69;100.00;94836.66;5095772;28;20204;-60
2022/05/13 03:55:13;;;;;;;7.78;4.55;;;;;;;15.89;78.78;94973.88;5094223;28;20688;-61
2022/05/13 03:57:39;;;;;;;6.57;4.82;;;;;;;15.76;73.82;94984.56;5095518;28;20203;-62
2022/05/13 04:00:07;;;;;;;9.77;4.82;;;;;;;15.34;74.32;94941.84;5095880;28;20180;-63
2022/05/13 04:02:32;;;;;;;4.88;4.35;;;;;;;15.31;76.29;94919.88;5077569;28;20223;-61
2022/05/13 04:10:27;;;;;;;8.80;4.13;;;;;;;15.06;74.97;94954.81;5095657;28;20257;-63
2022/05/13 04:18:20;;;;;;;4.53;4.13;;;;;;;14.87;76.67;94919.13;5095694;28;20215;-62
2022/05/13 04:20:47;;;;;;;5.13;4.60;;;;;;;14.65;77.73;94891.47;5094002;28;20176;-62
2022/05/13 04:23:13;;;;;;;6.53;4.90;;;;;;;14.56;78.33;94884.69;5095264;28;20203;-61
2022/05/13 04:25:39;;;;;;;8.07;5.97;;;;;;;14.37;79.82;94872.03;5095136;28;20181;-62
2022/05/13 04:28:04;;;;;;;11.30;5.47;;;;;;;14.37;80.40;94873.78;5094991;28;20212;-63
2022/05/13 04:30:30;;;;;;;7.47;5.30;;;;;;;14.32;80.60;94879.38;5095115;28;20172;-65
2022/05/13 04:32:55;;;;;;;6.20;4.78;;;;;;;14.41;80.42;94888.72;5095111;28;20587;-61
2022/05/13 04:35:20;;;;;;;5.25;4.75;;;;;;;14.32;82.38;94873.44;5095083;28;20225;-65
2022/05/13 04:37:46;;;;;;;7.72;5.57;;;;;;;14.55;80.62;94887.38;5094971;28;20753;-62
2022/05/13 04:40:12;;;;;;;5.67;5.07;;;;;;;14.53;80.61;94902.06;5095014;28;20646;-58
2022/05/13 04:42:49;;;;;;;5.75;5.00;;;;;;;14.59;80.24;94897.16;5095044;28;20644;-61
2022/05/13 04:45:23;;;;;;;10.88;5.38;;;;;;;14.74;79.16;94915.38;5094841;28;20221;-64
2022/05/13 04:50:35;;;;;;;7.45;4.82;;;;;;;14.69;79.89;94903.00;5094927;28;20563;-64
2022/05/13 04:53:01;;;;;;;5.43;4.63;;;;;;;14.73;80.14;94894.06;5093251;28;20255;-62
2022/05/13 04:55:27;;;;;;;11.35;5.10;;;;;;;14.78;80.30;94907.25;5094722;28;20180;-60
2022/05/13 04:57:53;;;;;;;9.05;4.95;;;;;;;15.03;77.87;94938.91;5094094;28;20557;-61
2022/05/13 05:00:18;;;;;;;5.70;4.43;;;;;;;15.09;77.50;94935.75;5094803;28;20241;-61
2022/05/13 05:02:44;;;;;;;6.65;4.75;;;;;;;15.17;77.23;94930.69;5094598;28;20265;-61
2022/05/13 05:05:09;;;;;;;8.27;4.63;;;;;;;15.32;77.07;94936.06;5094560;28;20226;-63
2022/05/13 05:07:35;;;;;;;7.63;5.15;;;;;;;15.34;76.79;94941.84;5094282;28;20571;-59
2022/05/13 05:10:00;;;;;;;6.20;5.20;;;;;;;15.32;77.69;94929.19;5094545;28;20180;-65
2022/05/13 05:12:26;;;;;;;10.55;4.85;;;;;;;15.41;75.27;94971.03;5096674;28;20188;-61
2022/05/13 05:14:51;;;;;;;6.15;4.38;;;;;;;15.58;75.33;94965.88;5094157;28;20184;-62
2022/05/13 05:17:17;;;;;;;6.82;4.57;;;;;;;15.49;75.53;94966.00;5093972;28;20618;-62
2022/05/13 05:19:42;;;;;;;5.65;4.55;;;;;;;15.51;74.65;94967.47;5094122;28;20302;-59
2022/05/13 05:22:07;;;;;;;5.85;4.60;;;;;;;15.63;74.43;94965.44;5095608;28;20176;-59
2022/05/13 05:24:33;;;;;;;9.00;4.93;;;;;;;15.80;75.01;94960.22;5094141;28;20202;-64
2022/05/13 05:26:58;;;;;;;8.07;5.53;;;;;;;15.80;75.29;94954.28;5094108;28;20180;-62
2022/05/13 05:29:24;;;;;;;5.90;5.18;;;;;;;15.95;90.75;94876.63;5094221;28;20301;-64
2022/05/13 05:31:49;;;;;;;8.93;5.63;;;;;;;16.12;77.04;94985.16;5093863;28;20263;-59
2022/05/13 05:34:17;;;;;;;6.97;4.65;;;;;;;16.04;77.38;94966.41;5094250;28;20203;-65
2022/05/13 05:36:43;;;;;;;12.00;5.03;;;;;;;16.16;76.46;94965.16;5092593;28;20172;-62
2022/05/13 05:39:09;;;;;;;9.40;5.28;;;;;;;16.19;76.38;94960.53;5094031;28;20200;-64
2022/05/13 05:41:35;;;;;;;9.18;5.55;;;;;;;16.44;75.30;94981.91;5093609;28;20184;-62
2022/05/13 05:44:00;;;;;;;10.98;5.70;;;;;;;16.49;75.63;94972.81;5093692;28;20204;-60
2022/05/13 05:46:26;;;;;;;8.98;5.60;;;;;;;16.37;75.88;94963.78;5093631;28;20176;-63
2022/05/13 05:48:51;;;;;;;9.90;4.82;;;;;;;16.54;74.73;94982.59;5084776;23;20320;-63
2022/05/13 05:51:17;;;;;;;10.90;5.00;;;;;;;16.58;80.86;94894.84;5073153;28;20655;-61
2022/05/13 05:59:11;;;;;;;6.35;4.95;;;;;;;17.25;100.00;94869.75;5072808;28;20654;-60
2022/05/13 06:01:37;;;;;;;8.95;5.28;;;;;;;17.73;87.77;94948.50;5072799;28;20646;-64
2022/05/13 06:04:03;;;;;;;6.00;4.50;;;;;;;17.82;69.26;95050.38;5073121;28;20203;-61
2022/05/13 06:06:29;;;;;;;7.40;5.32;;;;;;;17.59;69.85;95012.47;5072674;28;20173;-61
2022/05/13 06:08:55;;;;;;;17.13;5.15;;;;;;;17.67;68.57;95026.31;5071929;28;20293;-61
2022/05/13 06:11:24;;;;;;;10.35;5.30;;;;;;;17.64;68.63;95024.84;5072691;28;20222;-62
2022/05/13 06:13:53;;;;;;;10.35;5.10;;;;;;;17.35;71.78;94955.16;5071369;28;20598;-63
2022/05/13 06:16:22;;;;;;;13.88;5.68;;;;;;;17.52;71.28;94956.75;5072505;28;20658;-64
2022/05/13 06:18:48;;;;;;;10.95;5.32;;;;;;;17.56;70.43;94973.44;5071392;28;20200;-63
2022/05/13 06:21:13;;;;;;;11.18;4.88;;;;;;;17.52;70.13;94979.88;5071217;28;20562;-62
2022/05/13 06:23:39;;;;;;;7.95;4.70;;;;;;;17.63;68.62;94997.56;5072683;28;20562;-61
2022/05/13 06:26:05;;;;;;;6.15;5.43;;;;;;;17.59;68.83;94988.56;5071147;28;20615;-63
2022/05/13 06:28:30;;;;;;;7.60;5.47;;;;;;;17.72;68.56;94998.31;5072282;28;20220;-61
2022/05/13 06:30:56;;;;;;;7.70;5.13;;;;;;;17.99;85.10;94846.94;5072058;28;20558;-61
2022/05/13 06:33:23;;;;;;;13.32;5.15;;;;;;;18.45;80.37;94943.03;5072303;28;20243;-60
2022/05/13 06:35:48;;;;;;;10.80;6.53;;;;;;;18.57;70.85;94994.94;5072330;28;20246;-62
2022/05/13 06:38:20;;;;;;;11.82;6.05;;;;;;;19.11;79.88;94911.44;5072423;28;20699;-60
2022/05/13 06:40:49;;;;;;;11.38;6.95;;;;;;;19.42;68.35;95046.25;5072062;28;20181;-62
2022/05/13 06:43:15;;;;;;;8.80;5.90;;;;;;;19.47;66.57;95017.34;5072192;28;20212;-60
2022/05/13 06:45:41;;;;;;;8.88;5.40;;;;;;;19.32;63.38;95053.38;5072343;28;20185;-60
2022/05/13 06:48:07;;;;;;;16.05;6.18;;;;;;;19.25;65.62;95026.66;5075212;28;20216;-59
2022/05/13 06:50:33;;;;;;;14.40;5.88;;;;;;;19.49;72.10;94938.84;5094240;28;20274;-59
2022/05/13 06:52:59;;;;;;;11.90;5.97;;;;;;;19.50;69.23;94981.69;5111513;28;20333;-62
2022/05/13 06:55:25;;;;;;;8.40;5.45;;;;;;;19.90;72.43;94918.53;5112480;28;20199;-61
2022/05/13 06:57:50;;;;;;;12.07;5.35;;;;;;;20.29;64.96;95047.34;5112260;28;20280;-59
2022/05/13 07:00:16;;;;;;;13.85;5.30;;;;;;;20.36;62.81;95056.75;5110551;28;20225;-62
2022/05/13 07:02:42;;;;;;;12.05;5.18;;;;;;;20.33;67.23;94964.16;5093548;28;20276;-60
2022/05/13 07:05:10;;;;;;;7.85;5.40;;;;;;;20.31;61.70;95059.09;5094211;28;20269;-61
2022/05/13 07:07:36;;;;;;;14.68;6.50;;;;;;;20.14;62.72;95023.28;5112422;28;20691;-61
2022/05/13 07:10:02;;;;;;;17.25;5.72;;;;;;;20.26;64.10;94996.84;5112420;28;20646;-61
2022/05/13 07:12:29;;;;;;;9.63;4.75;;;;;;;20.83;65.69;94968.44;5093989;28;20171;-62
2022/05/13 07:14:55;;;;;;;10.50;5.55;;;;;;;21.02;60.31;95068.72;5112139;28;20176;-61
2022/05/13 07:17:21;;;;;;;5.68;4.22;;;;;;;21.32;64.22;94989.19;5112037;28;20171;-59
2022/05/13 07:19:47;;;;;;;11.95;6.05;;;;;;;21.34;59.81;95064.84;5111971;28;20211;-61
2022/05/13 07:22:13;;;;;;;8.85;4.97;;;;;;;21.59;62.99;95006.53;5111528;28;20180;-62
2022/05/13 07:24:38;;;;;;;12.30;5.20;;;;;;;21.84;61.62;95025.84;5111284;28;20213;-62
2022/05/13 07:27:05;;;;;;;8.63;6.32;;;;;;;22.10;60.36;95056.31;5112273;28;20183;-60
2022/05/13 07:29:31;;;;;;;11.13;5.15;;;;;;;22.36;59.91;95043.50;5111640;28;20298;-60
2022/05/13 07:31:56;;;;;;;14.77;6.32;;;;;;;22.49;56.10;95139.44;5109872;28;20691;-61
2022/05/13 07:34:22;;;;;;;10.30;5.18;;;;;;;22.72;57.40;95076.97;5111254;28;20232;-62
2022/05/13 07:36:53;;;;;;;10.63;6.05;;;;;;;22.83;55.85;95103.13;5093439;28;20183;-61
2022/05/13 07:42:05;;;;;;;10.20;5.47;;;;;;;23.08;55.86;95083.47;5097061;28;20166;-62
2022/05/13 07:44:31;;;;;;;11.45;5.75;;;;;;;23.14;55.17;95093.06;5112031;28;20203;-61
2022/05/13 07:46:56;;;;;;;15.52;5.28;;;;;;;23.33;55.17;95076.75;5094049;28;20187;-59
2022/05/13 07:49:21;;;;;;;9.20;5.38;;;;;;;23.45;53.78;95094.34;5093271;28;20230;-59
2022/05/13 07:51:47;;;;;;;18.17;5.68;;;;;;;23.47;54.70;95066.41;5093047;28;20255;-59
2022/05/13 07:54:13;;;;;;;9.40;5.50;;;;;;;23.44;53.50;95090.16;5110907;28;20726;-61
2022/05/13 07:56:38;;;;;;;10.80;5.40;;;;;;;23.49;54.05;95067.00;5110652;28;20179;-62
2022/05/13 07:59:03;;;;;;;12.38;5.13;;;;;;;23.63;53.23;95082.41;5112109;28;20208;-61
2022/05/13 08:01:30;;;;;;;13.85;5.45;;;;;;;23.52;52.46;95080.38;5111634;28;20560;-62
2022/05/13 08:03:56;;;;;;;15.52;5.68;;;;;;;23.57;52.63;95083.19;5111856;28;20669;-60
2022/05/13 08:06:22;;;;;;;15.85;5.30;;;;;;;23.59;49.57;95148.72;5111513;28;20601;-61
2022/05/13 08:08:53;;;;;;;8.35;5.07;;;;;;;23.23;48.88;95155.97;5111668;28;20645;-61
2022/05/13 08:11:19;;;;;;;7.80;4.93;;;;;;;22.73;53.65;95001.56;5092618;28;20184;-62
2022/05/13 08:13:45;;;;;;;11.35;5.15;;;;;;;22.82;54.52;95010.78;5093155;28;20257;-60
2022/05/13 08:16:14;;;;;;;14.18;5.43;;;;;;;22.93;54.18;95007.59;5111638;28;20175;-61
2022/05/13 08:18:41;;;;;;;10.70;5.05;;;;;;;22.39;52.43;95046.50;5111445;28;20215;-61
2022/05/13 08:21:07;;;;;;;9.23;4.88;;;;;;;22.51;52.61;95037.19;5111636;28;20180;-61
2022/05/13 08:23:32;;;;;;;15.90;5.22;;;;;;;22.74;52.35;95026.53;5111699;28;20206;-59
2022/05/13 08:25:58;;;;;;;7.57;4.40;;;;;;;22.74;54.04;94992.81;5111533;28;20629;-59
2022/05/13 08:28:26;;;;;;;9.32;4.50;;;;;;;22.73;52.23;95037.88;5110807;28;20298;-61
2022/05/13 08:30:52;;;;;;;11.35;5.40;;;;;;;22.71;48.34;95143.56;5091413;28;20183;-58
2022/05/13 08:33:18;;;;;;;8.43;4.68;;;;;;;22.86;52.92;95006.81;5114800;28;20586;-60
2022/05/13 08:35:49;;;;;;;29.83;6.95;;;;;;;22.99;49.97;95089.81;5115139;28;20172;-59
2022/05/13 08:38:21;;;;;;;6.50;4.57;;;;;;;22.98;51.94;95010.44;5115167;28;20332;-62
2022/05/13 08:40:50;;;;;;;14.15;5.28;;;;;;;23.33;53.30;94983.34;5096988;28;20175;-60
2022/05/13 08:43:39;;;;;;;10.80;5.03;;;;;;;23.25;51.83;95022.41;5115322;28;20703;-60
2022/05/13 08:46:16;;;;;;;13.73;6.90;;;;;;;23.37;50.52;95051.22;5114965;28;20168;-61
2022/05/13 08:48:44;;;;;;;9.68;5.03;;;;;;;23.50;50.08;95045.22;5114845;28;20219;-62
2022/05/13 08:51:14;;;;;;;12.88;5.45;;;;;;;23.53;51.74;95005.91;5114604;28;20172;-60
2022/05/13 08:54:10;;;;;;;10.35;5.25;;;;;;;23.65;49.34;95069.22;5114434;28;20207;-61
2022/05/13 08:56:36;;;;;;;8.18;5.10;;;;;;;23.60;50.32;95036.06;5112493;28;20160;-60
2022/05/13 08:59:35;;;;;;;13.13;5.53;;;;;;;23.68;49.17;95072.19;5113293;28;20207;-58
2022/05/13 09:02:15;;;;;;;9.75;4.30;;;;;;;23.67;47.66;95082.78;5114574;28;20174;-60
2022/05/13 09:04:49;;;;;;;11.35;5.32;;;;;;;23.84;47.85;95089.16;5114564;28;20228;-61
2022/05/13 09:07:18;;;;;;;11.40;5.43;;;;;;;23.95;47.31;95104.16;5114547;28;20160;-61
2022/05/13 09:09:47;;;;;;;9.80;4.55;;;;;;;24.13;49.32;95036.81;5096147;28;20195;-60
2022/05/13 09:12:28;;;;;;;12.30;4.30;;;;;;;24.30;46.98;95084.75;5095921;28;20171;-59
2022/05/13 09:15:05;;;;;;;9.82;5.03;;;;;;;24.29;47.02;95098.75;5114662;28;20179;-62
2022/05/13 09:17:44;;;;;;;8.10;4.68;;;;;;;24.21;46.07;95100.78;5114250;28;20740;-58
2022/05/13 09:20:13;;;;;;;7.57;4.50;;;;;;;24.61;45.31;95126.50;5114295;28;20288;-58
2022/05/13 09:22:43;;;;;;;7.68;4.63;;;;;;;24.85;52.17;94946.34;5114364;28;20203;-62
2022/05/13 09:25:20;;;;;;;9.18;4.20;;;;;;;24.80;48.12;95029.44;5112203;28;20618;-61
2022/05/13 09:27:56;;;;;;;13.90;4.50;;;;;;;24.92;45.82;95087.59;5114149;28;20195;-59
2022/05/13 09:30:28;;;;;;;11.13;4.47;;;;;;;25.33;47.67;95036.91;5114321;28;20181;-60
2022/05/13 09:32:54;;;;;;;11.30;5.10;;;;;;;25.51;44.07;95107.34;5114178;28;20200;-62
2022/05/13 09:35:30;;;;;;;9.23;4.53;;;;;;;25.64;44.10;95083.78;5113780;28;20224;-60
2022/05/13 09:37:56;;;;;;;9.10;4.32;;;;;;;25.87;41.31;95122.31;5114063;28;20214;-64
2022/05/13 09:40:24;;;;;;;9.05;4.90;;;;;;;25.79;41.49;95084.28;5114059;28;20243;-62
2022/05/13 09:42:53;;;;;;;7.68;4.18;;;;;;;25.63;43.98;94993.66;5114044;28;20237;-59
2022/05/13 09:45:26;;;;;;;10.50;4.50;;;;;;;25.76;42.23;95024.78;5113781;28;20301;-59
2022/05/13 09:48:04;;;;;;;6.18;4.40;;;;;;;25.05;40.99;95052.88;5113803;28;20263;-59
2022/05/13 09:50:35;;;;;;;9.88;4.30;;;;;;;25.25;41.70;95021.56;5113956;28;20225;-62
2022/05/13 09:53:09;;;;;;;6.15;4.30;;;;;;;25.26;42.13;95007.53;5095382;28;20681;-63
2022/05/13 09:55:38;;;;;;;8.98;4.55;;;;;;;25.43;42.96;94969.56;5113075;28;20275;-63
2022/05/13 09:58:26;;;;;;;9.20;4.03;;;;;;;25.97;43.83;94948.81;5112718;28;20203;-59
2022/05/13 10:01:14;;;;;;;9.82;3.70;;;;;;;26.19;39.92;95038.63;5111394;28;20586;-62
2022/05/13 10:03:40;;;;;;;4.75;3.88;;;;;;;26.38;38.98;95029.03;5110546;28;20251;-62
2022/05/13 10:06:08;;;;;;;5.75;3.70;;;;;;;26.71;40.72;94981.63;5113648;28;20175;-62
2022/05/13 10:08:37;;;;;;;3.97;3.60;;;;;;;26.83;37.41;95069.44;5095052;28;20230;-63
2022/05/13 10:14:00;;;;;;;9.45;3.30;;;;;;;27.10;37.64;95028.13;5113380;28;20242;-63
2022/05/13 10:16:45;;;;;;;5.28;2.80;;;;;;;27.41;37.25;95030.53;5095355;28;20653;-64
2022/05/13 10:19:13;;;;;;;5.53;3.08;;;;;;;27.64;34.96;95077.59;5113286;28;20598;-62
2022/05/13 10:22:16;;;;;;;10.07;2.88;;;;;;;27.48;35.55;95052.13;5113345;28;20184;-61
2022/05/13 10:24:57;;;;;;;5.00;3.10;;;;;;;27.80;36.49;95022.03;5113282;28;20179;-61
2022/05/13 10:27:29;;;;;;;7.28;3.20;;;;;;;27.80;34.48;95057.84;5113145;28;20645;-62
2022/05/13 10:30:03;;;;;;;4.70;3.58;;;;;;;27.86;35.70;95004.66;5094730;28;20223;-59
2022/05/13 10:32:53;;;;;;;4.43;3.17;;;;;;;27.76;34.11;95033.16;5112874;28;20182;-62
2022/05/13 10:35:23;;;;;;;6.07;2.97;;;;;;;27.81;33.51;95031.50;5113591;28;20183;-62
2022/05/13 10:37:59;;;;;;;4.25;3.17;;;;;;;27.86;34.06;95008.06;5094551;28;20294;-60
2022/05/13 10:40:29;;;;;;;3.63;3.33;;;;;;;28.04;34.14;95004.56;5110659;23;20230;-58
2022/05/13 10:43:10;;;;;;;6.10;3.22;;;;;;;28.20;35.60;94951.53;5098769;28;20195;-60
2022/05/13 10:45:39;;;;;;;11.40;3.33;;;;;;;28.51;35.80;94952.94;5112515;28;20776;-60
2022/05/13 10:48:29;;;;;;;5.22;3.30;;;;;;;28.69;36.99;94919.56;5112999;28;20207;-60
2022/05/13 10:51:16;;;;;;;4.35;3.60;;;;;;;28.92;37.06;94919.47;5114617;28;20544;-60
2022/05/13 10:54:19;;;;;;;5.13;3.78;;;;;;;29.17;35.87;94947.91;5112580;28;20565;-63
2022/05/13 10:57:12;;;;;;;10.43;4.00;;;;;;;29.49;35.52;94938.47;5112700;28;20271;-62
2022/05/13 10:59:53;;;;;;;4.78;3.30;;;;;;;29.79;34.80;94961.75;5094364;28;20274;-62
2022/05/13 11:02:40;;;;;;;9.25;3.80;;;;;;;29.55;33.94;94968.94;5112581;28;20705;-61
2022/05/13 11:05:30;;;;;;;7.15;4.03;;;;;;;29.31;33.97;94958.88;5112655;28;20195;-62
2022/05/13 11:08:14;;;;;;;3.88;3.50;;;;;;;29.81;33.79;94959.69;5112391;28;20248;-61
2022/05/13 11:11:16;;;;;;;11.93;3.55;;;;;;;30.20;33.75;94948.13;5113042;28;20190;-64
2022/05/13 11:13:57;;;;;;;9.82;3.42;;;;;;;29.51;33.53;94948.72;5112287;28;20696;-60
2022/05/13 11:16:38;;;;;;;13.85;4.10;;;;;;;29.26;33.40;94937.84;5112111;28;20191;-61
2022/05/13 11:19:16;;;;;;;8.63;4.15;;;;;;;29.70;35.14;94887.13;5111591;28;20688;-62
2022/05/13 11:21:54;;;;;;;5.40;3.42;;;;;;;30.22;34.39;94903.28;5094096;28;20174;-63
2022/05/13 11:27:26;;;;;;;4.70;3.90;;;;;;;30.42;34.22;94888.56;5112389;28;20245;-63
2022/05/13 11:30:01;;;;;;;6.03;3.67;;;;;;;30.70;35.48;94868.38;5093932;28;20218;-62
2022/05/13 11:33:08;;;;;;;6.28;3.92;;;;;;;29.91;32.61;94938.03;5110839;28;20163;-58
2022/05/13 11:36:05;;;;;;;5.25;2.97;;;;;;;29.70;30.55;94981.50;5049698;28;20198;-60
2022/05/13 11:38:43;;;;;;;3.90;3.40;;;;;;;30.12;31.57;94942.53;5022600;28;20215;-62
2022/05/13 11:41:13;;;;;;;7.50;3.53;;;;;;;30.07;32.73;94908.34;5093867;28;20195;-62
2022/05/13 11:44:02;;;;;;;5.53;3.20;;;;;;;29.85;32.92;94889.97;5112086;28;20701;-60
2022/05/13 11:46:54;;;;;;;7.10;3.95;;;;;;;30.06;34.18;94852.47;5112649;28;20186;-63
2022/05/13 11:49:31;;;;;;;7.90;3.55;;;;;;;30.30;33.29;94876.66;5093446;28;20237;-61
2022/05/13 11:52:23;;;;;;;3.28;2.95;;;;;;;30.18;31.11;94931.81;5111957;28;20219;-63
2022/05/13 11:55:09;;;;;;;5.75;3.22;;;;;;;30.05;31.05;94928.78;5093737;28;20180;-63
2022/05/13 11:57:44;;;;;;;6.88;3.40;;;;;;;29.76;33.09;94866.00;5093290;28;20584;-60
2022/05/13 12:00:23;;;;;;;8.10;3.08;;;;;;;30.39;32.45;94889.09;5111849;28;20179;-60
2022/05/13 12:03:02;;;;;;;4.28;2.97;;;;;;;30.90;31.65;94900.91;5109710;28;20286;-62
2022/05/13 12:05:31;;;;;;;4.63;2.72;;;;;;;30.93;30.93;94910.91;5111626;28;20316;-62
2022/05/13 12:08:09;;;;;;;5.78;2.80;;;;;;;31.17;29.92;94935.03;5096348;28;20330;-60
2022/05/13 12:10:52;;;;;;;5.40;2.90;;;;;;;30.96;30.36;94899.09;5116162;28;20542;-60
2022/05/13 12:13:59;;;;;;;4.80;2.88;;;;;;;31.33;30.79;94884.94;5115594;28;20707;-63
2022/05/13 12:16:52;;;;;;;5.40;3.30;;;;;;;31.20;30.29;94889.84;5101987;28;20195;-62